Vigil, Colorado
Current Conditions -  °F | °C
As of 1:49 AM on Saturday 22 Nov 2014 (Local Time) from KVTP Reporting Station
Clear Clear  
Wind Chill: 14°   Ceiling: Unl
Heat Index: 25°   Visibility: 10mi
Dew Point: 16°   Wind: 12mph
Humidity: 69%   Direction: 190°S
Pressure: 30.09"   Gusts: 21mph
Location:  37.1566°N, 104.956°W
Report Text: KVTP 220849Z AUTO 19010G18KT 180V240 10SM CLR M04/M09 A3009 RMK AO2 LTG DSNT S
Loading
Personal Weather Stations






























Interactive Weather Map New forecast layout! Learn more

10-Day Weather Forecast

Advertisements
Track Severe Weather on mobile